sensor_id;sensor_type;location;lat;lon;timestamp;pressure;altitude;pressure_sealevel;temperature;humidity
14204;BME280;7185;51.854;6.622;2024-03-23T00:55:23;100694.34;;;12.42;64.72
14204;BME280;7185;51.854;6.622;2024-03-23T00:58:09;100690.41;;;12.59;64.37
14204;BME280;7185;51.854;6.622;2024-03-23T01:00:46;100682.53;;;12.59;64.81
14204;BME280;7185;51.854;6.622;2024-03-23T01:03:25;100678.31;;;12.52;64.88
14204;BME280;7185;51.854;6.622;2024-03-23T01:06:09;100663.56;;;12.46;65.59
14204;BME280;7185;51.854;6.622;2024-03-23T01:08:50;100657.28;;;12.52;65.58
14204;BME280;7185;51.854;6.622;2024-03-23T01:11:38;100665.31;;;12.47;66.21
14204;BME280;7185;51.854;6.622;2024-03-23T01:14:45;100668.94;;;12.41;66.44
14204;BME280;7185;51.854;6.622;2024-03-23T01:17:35;100659.09;;;12.50;66.38
14204;BME280;7185;51.854;6.622;2024-03-23T01:20:07;100654.53;;;12.56;66.49
14204;BME280;7185;51.854;6.622;2024-03-23T01:22:58;100655.28;;;12.62;66.42
14204;BME280;7185;51.854;6.622;2024-03-23T01:25:45;100653.84;;;12.50;66.50
14204;BME280;7185;51.854;6.622;2024-03-23T01:29:09;100658.78;;;12.62;66.54
14204;BME280;7185;51.854;6.622;2024-03-23T01:31:52;100657.72;;;12.69;65.77
14204;BME280;7185;51.854;6.622;2024-03-23T01:34:25;100648.09;;;12.68;65.53
14204;BME280;7185;51.854;6.622;2024-03-23T01:37:00;100654.47;;;12.59;66.01
14204;BME280;7185;51.854;6.622;2024-03-23T01:39:39;100648.44;;;12.56;64.96
14204;BME280;7185;51.854;6.622;2024-03-23T01:42:21;100644.63;;;12.66;64.11
14204;BME280;7185;51.854;6.622;2024-03-23T01:45:44;100647.09;;;12.74;63.23
14204;BME280;7185;51.854;6.622;2024-03-23T01:48:23;100638.63;;;12.61;63.52
14204;BME280;7185;51.854;6.622;2024-03-23T01:50:57;100639.25;;;12.71;62.96
14204;BME280;7185;51.854;6.622;2024-03-23T01:53:39;100637.47;;;12.73;62.97
14204;BME280;7185;51.854;6.622;2024-03-23T01:56:13;100630.84;;;12.58;62.97
14204;BME280;7185;51.854;6.622;2024-03-23T01:58:52;100636.34;;;12.49;63.43
14204;BME280;7185;51.854;6.622;2024-03-23T02:01:29;100632.97;;;12.43;63.94
14204;BME280;7185;51.854;6.622;2024-03-23T02:04:04;100630.97;;;12.17;63.72
14204;BME280;7185;51.854;6.622;2024-03-23T02:06:38;100623.94;;;12.18;63.89
14204;BME280;7185;51.854;6.622;2024-03-23T02:09:19;100629.56;;;12.38;64.02
14204;BME280;7185;51.854;6.622;2024-03-23T02:11:52;100626.72;;;12.48;63.73
14204;BME280;7185;51.854;6.622;2024-03-23T02:14:28;100639.81;;;12.51;63.52
14204;BME280;7185;51.854;6.622;2024-03-23T02:17:00;100636.41;;;12.46;63.96
14204;BME280;7185;51.854;6.622;2024-03-23T02:19:36;100634.59;;;12.48;63.98
14204;BME280;7185;51.854;6.622;2024-03-23T02:22:07;100624.03;;;12.51;64.19
14204;BME280;7185;51.854;6.622;2024-03-23T02:25:08;100615.53;;;12.39;64.66
14204;BME280;7185;51.854;6.622;2024-03-23T02:27:50;100592.28;;;12.57;64.08
14204;BME280;7185;51.854;6.622;2024-03-23T02:30:27;100581.59;;;12.63;64.25
14204;BME280;7185;51.854;6.622;2024-03-23T02:32:58;100599.28;;;12.58;64.17
14204;BME280;7185;51.854;6.622;2024-03-23T02:35:34;100613.78;;;12.38;65.48
14204;BME280;7185;51.854;6.622;2024-03-23T02:38:05;100618.19;;;12.38;65.68
14204;BME280;7185;51.854;6.622;2024-03-23T02:40:49;100603.91;;;12.48;65.09
14204;BME280;7185;51.854;6.622;2024-03-23T02:43:20;100604.09;;;12.40;65.64
14204;BME280;7185;51.854;6.622;2024-03-23T02:45:57;100604.94;;;12.42;65.37
14204;BME280;7185;51.854;6.622;2024-03-23T02:48:33;100597.72;;;12.51;65.25
14204;BME280;7185;51.854;6.622;2024-03-23T02:51:06;100592.59;;;12.44;65.56
14204;BME280;7185;51.854;6.622;2024-03-23T02:53:37;100590.00;;;12.43;65.82
14204;BME280;7185;51.854;6.622;2024-03-23T02:56:19;100592.75;;;12.38;65.60
14204;BME280;7185;51.854;6.622;2024-03-23T02:58:52;100594.88;;;12.25;66.15
14204;BME280;7185;51.854;6.622;2024-03-23T03:01:24;100595.78;;;12.23;65.69
14204;BME280;7185;51.854;6.622;2024-03-23T03:03:57;100589.56;;;12.27;66.21
14204;BME280;7185;51.854;6.622;2024-03-23T03:06:30;100588.41;;;12.37;65.85
14204;BME280;7185;51.854;6.622;2024-03-23T03:09:04;100601.59;;;12.01;66.92
14204;BME280;7185;51.854;6.622;2024-03-23T03:11:41;100595.34;;;12.05;66.84
14204;BME280;7185;51.854;6.622;2024-03-23T03:14:16;100598.19;;;11.98;67.03
14204;BME280;7185;51.854;6.622;2024-03-23T03:16:54;100586.91;;;11.91;67.13
14204;BME280;7185;51.854;6.622;2024-03-23T03:19:27;100592.63;;;12.10;66.52
14204;BME280;7185;51.854;6.622;2024-03-23T03:22:02;100580.69;;;12.31;65.99
14204;BME280;7185;51.854;6.622;2024-03-23T03:24:39;100587.81;;;12.26;66.15
14204;BME280;7185;51.854;6.622;2024-03-23T03:27:16;100597.06;;;12.06;66.31
14204;BME280;7185;51.854;6.622;2024-03-23T03:29:53;100588.28;;;12.07;65.73
14204;BME280;7185;51.854;6.622;2024-03-23T03:32:29;100599.19;;;11.89;65.83
14204;BME280;7185;51.854;6.622;2024-03-23T03:35:03;100592.56;;;12.11;65.55
14204;BME280;7185;51.854;6.622;2024-03-23T03:37:37;100588.97;;;12.16;64.77
14204;BME280;7185;51.854;6.622;2024-03-23T03:40:15;100591.50;;;12.19;65.07
14204;BME280;7185;51.854;6.622;2024-03-23T03:42:47;100583.50;;;12.23;65.02
14204;BME280;7185;51.854;6.622;2024-03-23T03:45:28;100583.84;;;12.09;65.32
14204;BME280;7185;51.854;6.622;2024-03-23T03:47:59;100581.22;;;12.09;65.09
14204;BME280;7185;51.854;6.622;2024-03-23T03:50:55;100578.91;;;11.97;65.75
14204;BME280;7185;51.854;6.622;2024-03-23T03:53:35;100580.22;;;11.77;66.34
14204;BME280;7185;51.854;6.622;2024-03-23T03:56:37;100578.22;;;11.87;66.47
14204;BME280;7185;51.854;6.622;2024-03-23T04:02:43;100575.16;;;12.07;66.03
14204;BME280;7185;51.854;6.622;2024-03-23T04:05:23;100578.28;;;11.48;67.54
14204;BME280;7185;51.854;6.622;2024-03-23T04:07:57;100570.16;;;11.59;67.54
14204;BME280;7185;51.854;6.622;2024-03-23T04:10:41;100573.13;;;11.81;67.17
14204;BME280;7185;51.854;6.622;2024-03-23T04:13:25;100572.00;;;11.54;67.96
14204;BME280;7185;51.854;6.622;2024-03-23T04:19:52;100571.13;;;11.91;67.15
14204;BME280;7185;51.854;6.622;2024-03-23T04:22:59;100565.66;;;11.64;68.51
14204;BME280;7185;51.854;6.622;2024-03-23T04:25:35;100566.47;;;11.66;68.36
14204;BME280;7185;51.854;6.622;2024-03-23T04:28:25;100565.94;;;11.88;67.92
14204;BME280;7185;51.854;6.622;2024-03-23T04:31:15;100564.25;;;11.87;67.68
14204;BME280;7185;51.854;6.622;2024-03-23T04:34:38;100568.50;;;11.91;67.93
14204;BME280;7185;51.854;6.622;2024-03-23T04:37:30;100557.91;;;11.95;67.72
14204;BME280;7185;51.854;6.622;2024-03-23T04:40:03;100561.22;;;12.04;67.27
14204;BME280;7185;51.854;6.622;2024-03-23T04:46:04;100559.00;;;11.87;67.86
14204;BME280;7185;51.854;6.622;2024-03-23T04:48:49;100563.97;;;11.99;67.81
14204;BME280;7185;51.854;6.622;2024-03-23T04:51:43;100557.34;;;12.19;67.31
14204;BME280;7185;51.854;6.622;2024-03-23T04:55:11;100560.84;;;11.82;68.37
14204;BME280;7185;51.854;6.622;2024-03-23T04:58:19;100559.09;;;11.80;68.50
14204;BME280;7185;51.854;6.622;2024-03-23T05:01:19;100558.91;;;11.90;67.90
14204;BME280;7185;51.854;6.622;2024-03-23T05:04:16;100559.50;;;11.65;68.98
14204;BME280;7185;51.854;6.622;2024-03-23T05:07:05;100553.22;;;11.71;68.54
14204;BME280;7185;51.854;6.622;2024-03-23T05:09:55;100553.66;;;11.90;67.75
14204;BME280;7185;51.854;6.622;2024-03-23T05:12:44;100552.97;;;11.82;67.63
14204;BME280;7185;51.854;6.622;2024-03-23T05:16:03;100556.09;;;11.61;68.36
14204;BME280;7185;51.854;6.622;2024-03-23T05:19:06;100557.97;;;11.55;68.45
14204;BME280;7185;51.854;6.622;2024-03-23T05:22:02;100552.75;;;11.53;68.88
14204;BME280;7185;51.854;6.622;2024-03-23T05:24:39;100558.56;;;11.28;69.35
14204;BME280;7185;51.854;6.622;2024-03-23T05:27:38;100555.13;;;11.25;69.32
14204;BME280;7185;51.854;6.622;2024-03-23T05:34:00;100560.50;;;11.20;69.30
14204;BME280;7185;51.854;6.622;2024-03-23T05:40:10;100566.06;;;11.03;70.31
14204;BME280;7185;51.854;6.622;2024-03-23T05:43:12;100566.78;;;11.13;69.70
14204;BME280;7185;51.854;6.622;2024-03-23T05:46:03;100565.19;;;11.06;70.01
14204;BME280;7185;51.854;6.622;2024-03-23T05:48:46;100567.13;;;10.94;70.29
14204;BME280;7185;51.854;6.622;2024-03-23T05:51:24;100563.72;;;10.91;70.11
14204;BME280;7185;51.854;6.622;2024-03-23T05:54:29;100565.84;;;11.15;69.65
14204;BME280;7185;51.854;6.622;2024-03-23T05:57:32;100559.41;;;10.88;70.16
14204;BME280;7185;51.854;6.622;2024-03-23T06:00:13;100565.84;;;11.14;69.49
14204;BME280;7185;51.854;6.622;2024-03-23T06:02:56;100565.72;;;11.22;69.36
14204;BME280;7185;51.854;6.622;2024-03-23T06:05:34;100580.91;;;11.06;69.53
14204;BME280;7185;51.854;6.622;2024-03-23T06:08:20;100573.00;;;11.07;69.53
14204;BME280;7185;51.854;6.622;2024-03-23T06:11:23;100584.59;;;10.95;69.53
14204;BME280;7185;51.854;6.622;2024-03-23T06:14:30;100582.78;;;10.99;69.88
14204;BME280;7185;51.854;6.622;2024-03-23T06:17:23;100578.09;;;11.56;68.37
14204;BME280;7185;51.854;6.622;2024-03-23T06:23:25;100582.25;;;11.66;68.23
14204;BME280;7185;51.854;6.622;2024-03-23T06:26:07;100576.41;;;11.91;67.56
14204;BME280;7185;51.854;6.622;2024-03-23T06:29:12;100568.06;;;11.73;68.33
14204;BME280;7185;51.854;6.622;2024-03-23T06:32:07;100567.28;;;12.07;67.31
14204;BME280;7185;51.854;6.622;2024-03-23T06:34:42;100568.84;;;12.15;67.05
14204;BME280;7185;51.854;6.622;2024-03-23T06:37:13;100570.53;;;11.79;67.00
14204;BME280;7185;51.854;6.622;2024-03-23T06:39:59;100570.94;;;12.00;66.87
14204;BME280;7185;51.854;6.622;2024-03-23T06:46:19;100574.22;;;11.71;66.72
14204;BME280;7185;51.854;6.622;2024-03-23T06:48:59;100574.53;;;12.32;65.88
14204;BME280;7185;51.854;6.622;2024-03-23T06:51:34;100581.50;;;12.33;65.68
14204;BME280;7185;51.854;6.622;2024-03-23T06:54:14;100584.63;;;12.15;65.63
14204;BME280;7185;51.854;6.622;2024-03-23T07:18:29;100589.19;;;13.65;60.76
14204;BME280;7185;51.854;6.622;2024-03-23T07:28:45;100567.44;;;13.87;59.55
14204;BME280;7185;51.854;6.622;2024-03-23T07:31:17;100569.84;;;13.66;59.32
14204;BME280;7185;51.854;6.622;2024-03-23T07:33:49;100567.72;;;14.31;57.35
14204;BME280;7185;51.854;6.622;2024-03-23T07:36:20;100567.69;;;14.84;57.66
14204;BME280;7185;51.854;6.622;2024-03-23T07:38:51;100575.16;;;14.20;57.02
14204;BME280;7185;51.854;6.622;2024-03-23T07:41:23;100576.03;;;13.65;57.67
14204;BME280;7185;51.854;6.622;2024-03-23T07:43:54;100578.84;;;13.59;58.57
14204;BME280;7185;51.854;6.622;2024-03-23T07:46:26;100573.69;;;13.56;58.51
14204;BME280;7185;51.854;6.622;2024-03-23T07:48:58;100578.31;;;13.18;59.25
14204;BME280;7185;51.854;6.622;2024-03-23T07:51:30;100573.41;;;13.65;58.72
14204;BME280;7185;51.854;6.622;2024-03-23T07:54:00;100571.19;;;13.80;58.69
14204;BME280;7185;51.854;6.622;2024-03-23T07:56:32;100576.84;;;13.39;58.53
14204;BME280;7185;51.854;6.622;2024-03-23T07:59:03;100573.50;;;13.62;57.58
14204;BME280;7185;51.854;6.622;2024-03-23T08:01:34;100575.47;;;12.94;59.27
14204;BME280;7185;51.854;6.622;2024-03-23T08:04:06;100579.66;;;13.01;59.33
14204;BME280;7185;51.854;6.622;2024-03-23T08:06:38;100581.47;;;13.31;59.87
14204;BME280;7185;51.854;6.622;2024-03-23T08:09:09;100594.47;;;13.05;59.78
14204;BME280;7185;51.854;6.622;2024-03-23T08:11:40;100599.59;;;12.11;61.21
14204;BME280;7185;51.854;6.622;2024-03-23T08:14:14;100583.19;;;12.01;61.61
14204;BME280;7185;51.854;6.622;2024-03-23T08:16:46;100592.44;;;12.16;61.92
14204;BME280;7185;51.854;6.622;2024-03-23T08:19:21;100585.34;;;11.43;62.83
14204;BME280;7185;51.854;6.622;2024-03-23T08:21:52;100587.09;;;11.83;61.13
14204;BME280;7185;51.854;6.622;2024-03-23T08:24:24;100589.97;;;11.72;62.16
14204;BME280;7185;51.854;6.622;2024-03-23T08:26:56;100587.47;;;12.05;62.00
14204;BME280;7185;51.854;6.622;2024-03-23T08:29:27;100583.94;;;12.41;60.91
14204;BME280;7185;51.854;6.622;2024-03-23T08:31:59;100585.16;;;12.27;61.04
14204;BME280;7185;51.854;6.622;2024-03-23T08:34:32;100587.09;;;12.54;61.37
14204;BME280;7185;51.854;6.622;2024-03-23T08:37:04;100577.72;;;13.08;60.49
14204;BME280;7185;51.854;6.622;2024-03-23T08:39:35;100578.81;;;13.31;60.17
14204;BME280;7185;51.854;6.622;2024-03-23T08:42:07;100572.41;;;13.69;58.68
14204;BME280;7185;51.854;6.622;2024-03-23T08:44:39;100563.91;;;13.88;59.12
14204;BME280;7185;51.854;6.622;2024-03-23T08:47:10;100554.59;;;14.80;57.38
14204;BME280;7185;51.854;6.622;2024-03-23T08:49:44;100564.34;;;15.02;55.32
14204;BME280;7185;51.854;6.622;2024-03-23T08:52:16;100556.16;;;16.00;52.94
14204;BME280;7185;51.854;6.622;2024-03-23T08:54:46;100569.03;;;15.87;52.20
14204;BME280;7185;51.854;6.622;2024-03-23T08:57:18;100574.97;;;16.35;50.86
14204;BME280;7185;51.854;6.622;2024-03-23T08:59:49;100568.88;;;16.13;50.28
14204;BME280;7185;51.854;6.622;2024-03-23T09:02:21;100571.72;;;16.08;49.92
14204;BME280;7185;51.854;6.622;2024-03-23T09:04:54;100573.94;;;15.05;51.88
14204;BME280;7185;51.854;6.622;2024-03-23T09:07:24;100570.81;;;15.41;52.48
14204;BME280;7185;51.854;6.622;2024-03-23T09:09:56;100573.84;;;15.08;52.25
14204;BME280;7185;51.854;6.622;2024-03-23T09:12:27;100580.91;;;14.31;53.75
14204;BME280;7185;51.854;6.622;2024-03-23T09:14:59;100570.78;;;15.42;51.34
14204;BME280;7185;51.854;6.622;2024-03-23T09:17:30;100569.72;;;16.13;49.39
14204;BME280;7185;51.854;6.622;2024-03-23T09:20:04;100564.38;;;16.35;47.88
14204;BME280;7185;51.854;6.622;2024-03-23T09:22:34;100567.25;;;16.31;46.52
14204;BME280;7185;51.854;6.622;2024-03-23T09:25:09;100559.34;;;16.89;44.32
14204;BME280;7185;51.854;6.622;2024-03-23T09:27:40;100555.03;;;16.68;44.00
14204;BME280;7185;51.854;6.622;2024-03-23T09:30:13;100550.47;;;17.49;42.87
14204;BME280;7185;51.854;6.622;2024-03-23T09:32:44;100553.91;;;16.73;43.91
14204;BME280;7185;51.854;6.622;2024-03-23T09:35:17;100559.66;;;15.78;47.27
14204;BME280;7185;51.854;6.622;2024-03-23T09:37:48;100561.22;;;15.16;47.27
14204;BME280;7185;51.854;6.622;2024-03-23T09:40:19;100569.47;;;14.32;48.30
14204;BME280;7185;51.854;6.622;2024-03-23T09:42:51;100567.00;;;13.74;50.89
14204;BME280;7185;51.854;6.622;2024-03-23T09:45:30;100564.09;;;14.09;50.34
14204;BME280;7185;51.854;6.622;2024-03-23T09:48:03;100553.41;;;14.13;50.60
14204;BME280;7185;51.854;6.622;2024-03-23T09:50:37;100546.56;;;14.33;51.01
14204;BME280;7185;51.854;6.622;2024-03-23T09:53:09;100542.50;;;14.49;50.71
14204;BME280;7185;51.854;6.622;2024-03-23T09:55:43;100547.91;;;14.95;49.96
14204;BME280;7185;51.854;6.622;2024-03-23T09:58:16;100534.84;;;15.60;48.81
14204;BME280;7185;51.854;6.622;2024-03-23T10:00:48;100533.81;;;15.19;49.24
14204;BME280;7185;51.854;6.622;2024-03-23T10:03:19;100539.94;;;14.21;50.70
14204;BME280;7185;51.854;6.622;2024-03-23T10:06:02;100545.97;;;14.25;49.12
14204;BME280;7185;51.854;6.622;2024-03-23T10:08:33;100551.41;;;13.36;50.17
14204;BME280;7185;51.854;6.622;2024-03-23T10:11:13;100547.88;;;13.37;49.84
14204;BME280;7185;51.854;6.622;2024-03-23T10:13:44;100537.00;;;13.50;51.52
14204;BME280;7185;51.854;6.622;2024-03-23T10:16:27;100535.53;;;13.69;51.25
14204;BME280;7185;51.854;6.622;2024-03-23T10:19:00;100531.66;;;13.80;51.86
14204;BME280;7185;51.854;6.622;2024-03-23T10:21:36;100537.63;;;14.12;51.09
14204;BME280;7185;51.854;6.622;2024-03-23T10:24:08;100540.22;;;14.13;51.10
14204;BME280;7185;51.854;6.622;2024-03-23T10:26:39;100542.72;;;13.91;51.84
14204;BME280;7185;51.854;6.622;2024-03-23T10:29:11;100551.81;;;13.81;51.50
14204;BME280;7185;51.854;6.622;2024-03-23T10:31:43;100562.75;;;13.40;51.94
14204;BME280;7185;51.854;6.622;2024-03-23T10:34:27;100565.38;;;13.40;53.03
14204;BME280;7185;51.854;6.622;2024-03-23T10:37:02;100562.53;;;13.48;52.33
14204;BME280;7185;51.854;6.622;2024-03-23T10:39:39;100562.88;;;13.05;53.59
14204;BME280;7185;51.854;6.622;2024-03-23T10:42:13;100565.31;;;12.82;53.82
14204;BME280;7185;51.854;6.622;2024-03-23T10:47:27;100550.63;;;14.18;50.82
14204;BME280;7185;51.854;6.622;2024-03-23T10:50:18;100546.72;;;15.95;49.61
14204;BME280;7185;51.854;6.622;2024-03-23T10:53:15;100548.25;;;17.21;43.72
14204;BME280;7185;51.854;6.622;2024-03-23T10:56:18;100528.78;;;18.82;42.65
14204;BME280;7185;51.854;6.622;2024-03-23T10:59:38;100521.44;;;19.51;37.48
14204;BME280;7185;51.854;6.622;2024-03-23T11:02:38;100526.84;;;19.01;36.92
14204;BME280;7185;51.854;6.622;2024-03-23T11:05:45;100524.47;;;18.45;37.04
14204;BME280;7185;51.854;6.622;2024-03-23T11:08:40;100531.41;;;19.31;36.86
14204;BME280;7185;51.854;6.622;2024-03-23T11:11:22;100525.66;;;20.01;36.88
14204;BME280;7185;51.854;6.622;2024-03-23T11:14:22;100522.63;;;20.96;34.52
14204;BME280;7185;51.854;6.622;2024-03-23T11:17:26;100529.59;;;20.84;33.41
14204;BME280;7185;51.854;6.622;2024-03-23T11:20:02;100529.66;;;19.78;35.90
14204;BME280;7185;51.854;6.622;2024-03-23T11:22:40;100527.84;;;19.79;36.94
14204;BME280;7185;51.854;6.622;2024-03-23T11:25:18;100509.88;;;19.98;36.80
14204;BME280;7185;51.854;6.622;2024-03-23T11:28:10;100520.50;;;19.98;37.21
14204;BME280;7185;51.854;6.622;2024-03-23T11:30:48;100515.72;;;18.61;41.97
14204;BME280;7185;51.854;6.622;2024-03-23T11:34:13;100527.66;;;17.45;42.91
14204;BME280;7185;51.854;6.622;2024-03-23T11:36:42;100526.59;;;15.68;44.37
14204;BME280;7185;51.854;6.622;2024-03-23T11:39:17;100512.72;;;15.85;44.64
14204;BME280;7185;51.854;6.622;2024-03-23T11:41:56;100522.25;;;15.45;45.66
14204;BME280;7185;51.854;6.622;2024-03-23T11:44:43;100512.28;;;16.17;43.66
14204;BME280;7185;51.854;6.622;2024-03-23T11:47:20;100504.59;;;18.70;39.63
14204;BME280;7185;51.854;6.622;2024-03-23T11:50:07;100493.25;;;20.09;38.46
14204;BME280;7185;51.854;6.622;2024-03-23T11:53:15;100494.88;;;21.27;34.37
14204;BME280;7185;51.854;6.622;2024-03-23T11:55:50;100493.56;;;21.75;33.66
14204;BME280;7185;51.854;6.622;2024-03-23T11:58:28;100488.84;;;21.11;34.77
14204;BME280;7185;51.854;6.622;2024-03-23T12:00:59;100497.59;;;20.55;35.05
14204;BME280;7185;51.854;6.622;2024-03-23T12:03:32;100481.34;;;20.45;34.95
14204;BME280;7185;51.854;6.622;2024-03-23T12:06:04;100473.47;;;20.73;35.57
14204;BME280;7185;51.854;6.622;2024-03-23T12:08:38;100480.69;;;19.20;37.14
14204;BME280;7185;51.854;6.622;2024-03-23T12:11:11;100475.56;;;19.47;37.57
14204;BME280;7185;51.854;6.622;2024-03-23T12:13:47;100455.91;;;19.50;34.94
14204;BME280;7185;51.854;6.622;2024-03-23T12:16:20;100457.56;;;20.57;33.36
14204;BME280;7185;51.854;6.622;2024-03-23T12:18:52;100461.47;;;21.49;33.56
14204;BME280;7185;51.854;6.622;2024-03-23T12:21:24;100464.69;;;21.27;31.94
14204;BME280;7185;51.854;6.622;2024-03-23T12:23:56;100459.06;;;20.90;32.34
14204;BME280;7185;51.854;6.622;2024-03-23T12:26:29;100459.59;;;21.09;31.97
14204;BME280;7185;51.854;6.622;2024-03-23T12:29:02;100455.69;;;19.85;32.85
14204;BME280;7185;51.854;6.622;2024-03-23T12:31:33;100461.78;;;18.76;34.11
14204;BME280;7185;51.854;6.622;2024-03-23T12:34:08;100467.47;;;16.72;37.49
14204;BME280;7185;51.854;6.622;2024-03-23T12:36:42;100467.38;;;16.15;39.78
14204;BME280;7185;51.854;6.622;2024-03-23T12:39:14;100485.97;;;15.26;40.99
14204;BME280;7185;51.854;6.622;2024-03-23T12:41:45;100491.81;;;14.65;42.44
14204;BME280;7185;51.854;6.622;2024-03-23T12:44:21;100494.34;;;14.19;42.56
14204;BME280;7185;51.854;6.622;2024-03-23T12:46:52;100506.53;;;13.41;44.15
14204;BME280;7185;51.854;6.622;2024-03-23T12:49:24;100507.94;;;13.80;45.46
14204;BME280;7185;51.854;6.622;2024-03-23T12:51:58;100506.63;;;14.18;46.16
14204;BME280;7185;51.854;6.622;2024-03-23T12:54:32;100498.81;;;13.90;47.07
14204;BME280;7185;51.854;6.622;2024-03-23T12:57:03;100515.91;;;13.50;47.12
14204;BME280;7185;51.854;6.622;2024-03-23T12:59:37;100505.38;;;13.50;49.73
14204;BME280;7185;51.854;6.622;2024-03-23T13:02:21;100490.91;;;15.36;48.84
14204;BME280;7185;51.854;6.622;2024-03-23T13:04:56;100477.16;;;17.12;42.67
14204;BME280;7185;51.854;6.622;2024-03-23T13:07:30;100466.69;;;18.17;40.03
14204;BME280;7185;51.854;6.622;2024-03-23T13:10:02;100476.81;;;18.60;38.68
14204;BME280;7185;51.854;6.622;2024-03-23T13:12:39;100472.00;;;19.32;36.94
14204;BME280;7185;51.854;6.622;2024-03-23T13:15:14;100472.19;;;19.75;37.16
14204;BME280;7185;51.854;6.622;2024-03-23T13:17:47;100473.53;;;20.28;35.16
14204;BME280;7185;51.854;6.622;2024-03-23T13:20:19;100473.88;;;19.77;34.25
14204;BME280;7185;51.854;6.622;2024-03-23T13:22:50;100471.53;;;20.17;33.89
14204;BME280;7185;51.854;6.622;2024-03-23T13:25:22;100477.59;;;19.58;34.87
14204;BME280;7185;51.854;6.622;2024-03-23T13:27:53;100465.44;;;20.15;33.27
14204;BME280;7185;51.854;6.622;2024-03-23T13:30:26;100458.22;;;18.93;33.90
14204;BME280;7185;51.854;6.622;2024-03-23T13:32:57;100457.53;;;19.68;33.75
14204;BME280;7185;51.854;6.622;2024-03-23T13:35:28;100460.41;;;19.17;34.38
14204;BME280;7185;51.854;6.622;2024-03-23T13:37:59;100459.69;;;19.92;33.76
14204;BME280;7185;51.854;6.622;2024-03-23T13:40:31;100453.41;;;19.16;33.26
14204;BME280;7185;51.854;6.622;2024-03-23T13:43:01;100448.50;;;17.74;36.36
14204;BME280;7185;51.854;6.622;2024-03-23T13:45:38;100445.09;;;18.41;37.03
14204;BME280;7185;51.854;6.622;2024-03-23T13:48:11;100442.44;;;19.06;35.00
14204;BME280;7185;51.854;6.622;2024-03-23T13:50:46;100447.94;;;16.75;37.81
14204;BME280;7185;51.854;6.622;2024-03-23T13:53:19;100452.72;;;16.48;38.84
14204;BME280;7185;51.854;6.622;2024-03-23T13:56:00;100449.66;;;16.17;40.34
14204;BME280;7185;51.854;6.622;2024-03-23T13:58:35;100450.03;;;15.67;41.76
14204;BME280;7185;51.854;6.622;2024-03-23T14:01:21;100463.31;;;15.21;44.36
14204;BME280;7185;51.854;6.622;2024-03-23T14:03:59;100459.34;;;15.33;43.59
14204;BME280;7185;51.854;6.622;2024-03-23T14:06:50;100445.47;;;15.48;44.19
14204;BME280;7185;51.854;6.622;2024-03-23T14:09:27;100450.19;;;16.05;43.13
14204;BME280;7185;51.854;6.622;2024-03-23T14:12:05;100443.34;;;17.53;40.73
14204;BME280;7185;51.854;6.622;2024-03-23T14:14:46;100429.28;;;17.51;39.07
14204;BME280;7185;51.854;6.622;2024-03-23T14:17:27;100454.88;;;16.59;41.35
14204;BME280;7185;51.854;6.622;2024-03-23T14:20:01;100469.28;;;15.69;43.83
14204;BME280;7185;51.854;6.622;2024-03-23T14:22:44;100481.53;;;14.57;46.46
14204;BME280;7185;51.854;6.622;2024-03-23T14:25:17;100481.78;;;13.74;52.53
14204;BME280;7185;51.854;6.622;2024-03-23T14:27:55;100492.34;;;12.88;55.42
14204;BME280;7185;51.854;6.622;2024-03-23T14:30:26;100487.84;;;12.92;55.98
14204;BME280;7185;51.854;6.622;2024-03-23T14:33:08;100480.28;;;13.10;54.96
14204;BME280;7185;51.854;6.622;2024-03-23T14:35:42;100479.81;;;13.25;53.98
14204;BME280;7185;51.854;6.622;2024-03-23T14:38:26;100463.63;;;13.37;53.42
14204;BME280;7185;51.854;6.622;2024-03-23T14:41:07;100444.69;;;15.46;52.32
14204;BME280;7185;51.854;6.622;2024-03-23T14:43:51;100439.69;;;17.19;47.56
14204;BME280;7185;51.854;6.622;2024-03-23T14:46:24;100431.94;;;17.34;44.01
14204;BME280;7185;51.854;6.622;2024-03-23T14:49:06;100424.31;;;17.45;43.33
14204;BME280;7185;51.854;6.622;2024-03-23T14:51:37;100440.13;;;17.10;42.74
14204;BME280;7185;51.854;6.622;2024-03-23T14:54:21;100429.91;;;17.02;42.43
14204;BME280;7185;51.854;6.622;2024-03-23T14:56:57;100438.25;;;16.95;41.49
14204;BME280;7185;51.854;6.622;2024-03-23T14:59:39;100438.81;;;15.82;42.63
14204;BME280;7185;51.854;6.622;2024-03-23T15:02:26;100427.56;;;16.18;43.61
14204;BME280;7185;51.854;6.622;2024-03-23T15:05:17;100425.34;;;16.28;42.48
14204;BME280;7185;51.854;6.622;2024-03-23T15:07:57;100431.75;;;16.03;42.27
14204;BME280;7185;51.854;6.622;2024-03-23T15:10:33;100423.72;;;16.05;41.63
14204;BME280;7185;51.854;6.622;2024-03-23T15:13:25;100427.00;;;15.69;41.65
14204;BME280;7185;51.854;6.622;2024-03-23T15:16:02;100423.94;;;15.37;42.52
14204;BME280;7185;51.854;6.622;2024-03-23T15:18:53;100424.84;;;14.91;44.94
14204;BME280;7185;51.854;6.622;2024-03-23T15:21:37;100421.66;;;15.50;43.17
14204;BME280;7185;51.854;6.622;2024-03-23T15:24:16;100421.59;;;15.07;43.41
14204;BME280;7185;51.854;6.622;2024-03-23T15:27:01;100424.53;;;14.53;43.11
14204;BME280;7185;51.854;6.622;2024-03-23T15:29:38;100414.53;;;14.38;43.53
14204;BME280;7185;51.854;6.622;2024-03-23T15:32:19;100407.41;;;14.87;43.34
14204;BME280;7185;51.854;6.622;2024-03-23T15:35:00;100417.72;;;14.22;44.46
14204;BME280;7185;51.854;6.622;2024-03-23T15:37:51;100432.47;;;13.52;47.50
14204;BME280;7185;51.854;6.622;2024-03-23T15:40:24;100427.88;;;13.57;48.72
14204;BME280;7185;51.854;6.622;2024-03-23T15:43:01;100453.88;;;13.41;50.47
14204;BME280;7185;51.854;6.622;2024-03-23T15:45:40;100457.09;;;12.64;54.30
14204;BME280;7185;51.854;6.622;2024-03-23T15:48:22;100463.13;;;12.36;54.97
14204;BME280;7185;51.854;6.622;2024-03-23T15:51:05;100459.66;;;12.34;56.06
14204;BME280;7185;51.854;6.622;2024-03-23T15:53:47;100459.78;;;12.61;55.72
14204;BME280;7185;51.854;6.622;2024-03-23T15:56:36;100467.31;;;11.40;58.51